Flight Briefing for CMB835

Departure Arrival
Biggs Army Airfield (Fort Bliss) (KBIF)
Click to view FAA NOTAMS
Joint Base McGuire Dix Lakehurst (KWRI)
Click to view FAA NOTAMS
Departure Time Arrival Time
N/A N/A
Aircraft Distance
B767-300BDSF 1614nm
Departure METAR Arrival METAR
KBIF 220958Z AUTO 13004KT 10SM FEW220 13/08 A2998 RMK AO2 SLP104 T01260079 $ KWRI 221136Z AUTO 31019G25KT 9SM RA BKN016 OVC027 04/04 A2933 RMK AO2 CIG 013 RWY18 SLP932
Suggested Route
CME J26 PNH IFI J8 STL J110 VHP ROD J152 HAR


View recent IFR Routes data
Notes
USTRANSCOM CONTRACT FLIGHT

Charts and Procedures

Charts for KBIF
No chart available
Charts for KWRI
No chart available

Windy.com Weather Map